Acushnet, MA (02743)

2:37 AM EDT on September 30, 2016 (GMT -0400)
APRSWXNET | | Change Station

Elev 93 ft 41.70 °N, 70.93 °W | Updated 42 minutes ago

Overcast
Overcast
58 °F
Feels Like 58 °F
N
2
Wind Variable Wind from NE
Gusts 10.0 mph

Today
High -- | Low -- °F
--% Chance of Precip.
Yesterday
High -- | Low -- °F
Precip. -- in
Pressure 30.43 in
Visibility 10.0 miles
Clouds Overcast 2400 ft
Dew Point 53 °F
Humidity 84%
Rainfall in
Snow Depth Not available.
6:39 AM 6:26 PM
Waning Crescent, 1% visible
METAR KEWB 300553Z AUTO 04007KT 10SM OVC024 15/11 A3043 RMK AO2 SLP302 T01500106 10150 20139 55009
Pressure 30.43 in
Visibility 10.0 miles
Clouds Overcast 2400 ft
Dew Point 53 °F
Humidity 84%
Rainfall in
Snow Depth Not available.
6:39 AM 6:26 PM
Waning Crescent, 1% visible
METAR KEWB 300553Z AUTO 04007KT 10SM OVC024 15/11 A3043 RMK AO2 SLP302 T01500106 10150 20139 55009

10-Day Weather Forecast

Almanac

Astronomy

Sep. 30, 2016 Rise Set
Actual Time
Civil Twilight
Nautical Twilight
Astronomical Twilight
Moon
Length of Visible Light
Length of Day
Tomorrow will be .
, % of the Moon is Illuminated

Today's Extremes

State Highs State Lows

Community

WunderPhotos

Upload Photos

1,942,668 photos uploaded!

WunderBlog® & News

Nearby

Air Quality

  Air Quality AQ Index Pollutant
Not available.

Snow Depth

Station Depth Elevation

Earthquake Activity

City Distance Mag. Time & Date
Minimum magnitude displayed is 2.5.

Coastal Water Temperatures

Place Temperature

Stations

Nearby Weather Stations

Station Location Temp. Windchill Dew Point Humidity Wind Precip. Elev Updated Type
                   

Watches & Warnings

There are currently no watches in effect.